sensor_id;sensor_type;location;lat;lon;timestamp;P1;durP1;ratioP1;P2;durP2;ratioP2
21546;SDS011;41275;51.912;4.388;2023-03-01T00:03:35;13.15;;;8.10;;
21546;SDS011;41275;51.912;4.388;2023-03-01T00:08:57;13.97;;;7.93;;
21546;SDS011;41275;51.912;4.388;2023-03-01T00:14:18;13.95;;;8.65;;
21546;SDS011;41275;51.912;4.388;2023-03-01T00:19:39;14.43;;;7.90;;
21546;SDS011;41275;51.912;4.388;2023-03-01T00:25:00;15.18;;;8.68;;
21546;SDS011;41275;51.912;4.388;2023-03-01T00:30:21;15.33;;;8.63;;
21546;SDS011;41275;51.912;4.388;2023-03-01T00:35:43;14.52;;;8.55;;
21546;SDS011;41275;51.912;4.388;2023-03-01T00:41:04;14.52;;;8.60;;
21546;SDS011;41275;51.912;4.388;2023-03-01T00:46:27;16.40;;;8.68;;
21546;SDS011;41275;51.912;4.388;2023-03-01T00:51:48;15.60;;;9.13;;
21546;SDS011;41275;51.912;4.388;2023-03-01T00:57:09;18.45;;;9.93;;
21546;SDS011;41275;51.912;4.388;2023-03-01T01:02:31;17.75;;;10.40;;
21546;SDS011;41275;51.912;4.388;2023-03-01T01:07:54;16.02;;;9.77;;
21546;SDS011;41275;51.912;4.388;2023-03-01T01:13:15;16.88;;;9.95;;
21546;SDS011;41275;51.912;4.388;2023-03-01T01:18:36;15.93;;;9.43;;
21546;SDS011;41275;51.912;4.388;2023-03-01T01:23:58;16.85;;;9.38;;
21546;SDS011;41275;51.912;4.388;2023-03-01T01:29:19;16.17;;;9.97;;
21546;SDS011;41275;51.912;4.388;2023-03-01T01:34:40;15.80;;;9.52;;
21546;SDS011;41275;51.912;4.388;2023-03-01T01:40:02;17.20;;;9.70;;
21546;SDS011;41275;51.912;4.388;2023-03-01T01:45:32;15.80;;;9.73;;
21546;SDS011;41275;51.912;4.388;2023-03-01T01:50:58;16.23;;;9.85;;
21546;SDS011;41275;51.912;4.388;2023-03-01T01:56:21;16.70;;;10.63;;
21546;SDS011;41275;51.912;4.388;2023-03-01T02:01:46;16.73;;;9.45;;
21546;SDS011;41275;51.912;4.388;2023-03-01T02:07:14;19.80;;;10.48;;
21546;SDS011;41275;51.912;4.388;2023-03-01T02:12:37;16.70;;;10.55;;
21546;SDS011;41275;51.912;4.388;2023-03-01T02:17:59;18.90;;;11.57;;
21546;SDS011;41275;51.912;4.388;2023-03-01T02:23:21;20.40;;;12.77;;
21546;SDS011;41275;51.912;4.388;2023-03-01T02:28:43;23.03;;;14.27;;
21546;SDS011;41275;51.912;4.388;2023-03-01T02:34:06;21.88;;;13.45;;
21546;SDS011;41275;51.912;4.388;2023-03-01T02:39:50;25.48;;;14.45;;
21546;SDS011;41275;51.912;4.388;2023-03-01T02:45:12;22.48;;;13.80;;
21546;SDS011;41275;51.912;4.388;2023-03-01T02:50:55;25.47;;;15.03;;
21546;SDS011;41275;51.912;4.388;2023-03-01T02:56:25;24.75;;;14.95;;
21546;SDS011;41275;51.912;4.388;2023-03-01T03:01:47;24.83;;;15.00;;
21546;SDS011;41275;51.912;4.388;2023-03-01T03:07:08;24.33;;;15.45;;
21546;SDS011;41275;51.912;4.388;2023-03-01T03:12:30;25.97;;;15.13;;
21546;SDS011;41275;51.912;4.388;2023-03-01T03:17:52;25.02;;;14.38;;
21546;SDS011;41275;51.912;4.388;2023-03-01T03:23:14;24.00;;;13.48;;
21546;SDS011;41275;51.912;4.388;2023-03-01T03:28:35;22.80;;;13.30;;
21546;SDS011;41275;51.912;4.388;2023-03-01T03:33:56;24.27;;;13.65;;
21546;SDS011;41275;51.912;4.388;2023-03-01T03:39:17;24.08;;;13.10;;
21546;SDS011;41275;51.912;4.388;2023-03-01T03:44:38;22.27;;;13.10;;
21546;SDS011;41275;51.912;4.388;2023-03-01T03:50:00;22.98;;;13.70;;
21546;SDS011;41275;51.912;4.388;2023-03-01T03:55:21;24.15;;;13.77;;
21546;SDS011;41275;51.912;4.388;2023-03-01T04:00:43;27.80;;;14.43;;
21546;SDS011;41275;51.912;4.388;2023-03-01T04:06:05;25.48;;;14.32;;
21546;SDS011;41275;51.912;4.388;2023-03-01T04:11:26;25.23;;;14.17;;
21546;SDS011;41275;51.912;4.388;2023-03-01T04:16:48;26.38;;;15.40;;
21546;SDS011;41275;51.912;4.388;2023-03-01T04:22:09;29.50;;;16.60;;
21546;SDS011;41275;51.912;4.388;2023-03-01T04:27:35;28.83;;;16.20;;
21546;SDS011;41275;51.912;4.388;2023-03-01T04:32:57;26.47;;;15.33;;
21546;SDS011;41275;51.912;4.388;2023-03-01T04:38:18;28.33;;;16.33;;
21546;SDS011;41275;51.912;4.388;2023-03-01T04:43:40;25.07;;;15.83;;
21546;SDS011;41275;51.912;4.388;2023-03-01T04:49:02;29.55;;;16.15;;
21546;SDS011;41275;51.912;4.388;2023-03-01T04:54:24;26.50;;;15.23;;
21546;SDS011;41275;51.912;4.388;2023-03-01T04:59:45;27.87;;;15.03;;
21546;SDS011;41275;51.912;4.388;2023-03-01T05:05:06;27.35;;;15.70;;
21546;SDS011;41275;51.912;4.388;2023-03-01T05:10:29;29.35;;;16.17;;
21546;SDS011;41275;51.912;4.388;2023-03-01T05:15:55;28.42;;;15.70;;
21546;SDS011;41275;51.912;4.388;2023-03-01T05:21:19;28.17;;;16.10;;
21546;SDS011;41275;51.912;4.388;2023-03-01T05:26:40;27.38;;;16.17;;
21546;SDS011;41275;51.912;4.388;2023-03-01T05:32:02;28.33;;;15.70;;
21546;SDS011;41275;51.912;4.388;2023-03-01T05:37:23;28.05;;;15.70;;
21546;SDS011;41275;51.912;4.388;2023-03-01T05:48:07;25.45;;;14.70;;
21546;SDS011;41275;51.912;4.388;2023-03-01T05:53:29;23.97;;;14.50;;
21546;SDS011;41275;51.912;4.388;2023-03-01T05:58:50;25.05;;;14.15;;
21546;SDS011;41275;51.912;4.388;2023-03-01T06:04:11;27.90;;;15.47;;
21546;SDS011;41275;51.912;4.388;2023-03-01T06:09:33;23.13;;;13.82;;
21546;SDS011;41275;51.912;4.388;2023-03-01T06:14:54;23.67;;;13.97;;
21546;SDS011;41275;51.912;4.388;2023-03-01T06:20:19;23.45;;;13.30;;
21546;SDS011;41275;51.912;4.388;2023-03-01T06:25:42;23.48;;;13.85;;
21546;SDS011;41275;51.912;4.388;2023-03-01T06:31:03;23.67;;;13.67;;
21546;SDS011;41275;51.912;4.388;2023-03-01T06:36:25;22.70;;;13.20;;
21546;SDS011;41275;51.912;4.388;2023-03-01T06:41:46;23.27;;;13.20;;
21546;SDS011;41275;51.912;4.388;2023-03-01T06:47:07;22.30;;;13.45;;
21546;SDS011;41275;51.912;4.388;2023-03-01T06:52:28;24.33;;;14.13;;
21546;SDS011;41275;51.912;4.388;2023-03-01T06:57:56;22.83;;;14.20;;
21546;SDS011;41275;51.912;4.388;2023-03-01T07:03:19;28.30;;;15.30;;
21546;SDS011;41275;51.912;4.388;2023-03-01T07:08:40;27.48;;;15.15;;
21546;SDS011;41275;51.912;4.388;2023-03-01T07:14:01;26.50;;;14.57;;
21546;SDS011;41275;51.912;4.388;2023-03-01T07:19:22;27.35;;;15.27;;
21546;SDS011;41275;51.912;4.388;2023-03-01T07:24:44;26.17;;;15.07;;
21546;SDS011;41275;51.912;4.388;2023-03-01T07:30:05;24.95;;;14.45;;
21546;SDS011;41275;51.912;4.388;2023-03-01T07:35:27;26.15;;;15.38;;
21546;SDS011;41275;51.912;4.388;2023-03-01T07:40:48;27.23;;;14.90;;
21546;SDS011;41275;51.912;4.388;2023-03-01T07:46:09;26.98;;;14.80;;
21546;SDS011;41275;51.912;4.388;2023-03-01T07:51:31;29.17;;;15.77;;
21546;SDS011;41275;51.912;4.388;2023-03-01T07:56:52;28.00;;;14.90;;
21546;SDS011;41275;51.912;4.388;2023-03-01T08:02:15;23.83;;;13.98;;
21546;SDS011;41275;51.912;4.388;2023-03-01T08:07:36;23.88;;;14.10;;
21546;SDS011;41275;51.912;4.388;2023-03-01T08:12:58;24.00;;;13.30;;
21546;SDS011;41275;51.912;4.388;2023-03-01T08:18:19;23.77;;;12.48;;
21546;SDS011;41275;51.912;4.388;2023-03-01T08:23:42;18.73;;;11.30;;
21546;SDS011;41275;51.912;4.388;2023-03-01T08:29:03;20.08;;;11.65;;
21546;SDS011;41275;51.912;4.388;2023-03-01T08:34:24;17.23;;;10.25;;
21546;SDS011;41275;51.912;4.388;2023-03-01T08:39:46;17.23;;;9.27;;
21546;SDS011;41275;51.912;4.388;2023-03-01T08:45:07;14.98;;;8.82;;
21546;SDS011;41275;51.912;4.388;2023-03-01T08:50:29;11.48;;;6.90;;
21546;SDS011;41275;51.912;4.388;2023-03-01T08:55:50;10.52;;;6.35;;
21546;SDS011;41275;51.912;4.388;2023-03-01T09:01:13;10.93;;;6.53;;
21546;SDS011;41275;51.912;4.388;2023-03-01T09:06:38;9.88;;;5.60;;
21546;SDS011;41275;51.912;4.388;2023-03-01T09:11:59;9.45;;;4.75;;
21546;SDS011;41275;51.912;4.388;2023-03-01T09:17:21;8.63;;;4.27;;
21546;SDS011;41275;51.912;4.388;2023-03-01T09:22:43;8.57;;;4.28;;
21546;SDS011;41275;51.912;4.388;2023-03-01T09:28:04;7.13;;;4.05;;
21546;SDS011;41275;51.912;4.388;2023-03-01T09:33:26;9.17;;;4.30;;
21546;SDS011;41275;51.912;4.388;2023-03-01T09:38:48;7.72;;;3.60;;
21546;SDS011;41275;51.912;4.388;2023-03-01T09:44:18;6.90;;;4.38;;
21546;SDS011;41275;51.912;4.388;2023-03-01T09:50:20;8.40;;;4.30;;
21546;SDS011;41275;51.912;4.388;2023-03-01T10:01:38;6.75;;;3.70;;
21546;SDS011;41275;51.912;4.388;2023-03-01T10:12:25;7.63;;;4.18;;
21546;SDS011;41275;51.912;4.388;2023-03-01T10:17:52;8.53;;;4.20;;
21546;SDS011;41275;51.912;4.388;2023-03-01T10:23:18;7.40;;;4.00;;
21546;SDS011;41275;51.912;4.388;2023-03-01T10:34:30;7.78;;;3.85;;
21546;SDS011;41275;51.912;4.388;2023-03-01T10:40:03;7.10;;;3.33;;
21546;SDS011;41275;51.912;4.388;2023-03-01T10:50:51;6.57;;;3.00;;
21546;SDS011;41275;51.912;4.388;2023-03-01T10:56:18;5.57;;;2.85;;
21546;SDS011;41275;51.912;4.388;2023-03-01T11:01:40;4.97;;;2.70;;
21546;SDS011;41275;51.912;4.388;2023-03-01T11:07:01;6.03;;;3.07;;
21546;SDS011;41275;51.912;4.388;2023-03-01T11:12:23;7.40;;;3.70;;
21546;SDS011;41275;51.912;4.388;2023-03-01T11:17:45;8.30;;;3.60;;
21546;SDS011;41275;51.912;4.388;2023-03-01T11:23:10;8.05;;;4.07;;
21546;SDS011;41275;51.912;4.388;2023-03-01T11:28:33;7.40;;;4.32;;
21546;SDS011;41275;51.912;4.388;2023-03-01T11:34:11;7.22;;;4.20;;
21546;SDS011;41275;51.912;4.388;2023-03-01T11:39:39;9.20;;;4.78;;
21546;SDS011;41275;51.912;4.388;2023-03-01T11:45:08;8.65;;;4.60;;
21546;SDS011;41275;51.912;4.388;2023-03-01T11:50:35;8.75;;;4.80;;
21546;SDS011;41275;51.912;4.388;2023-03-01T11:56:05;7.60;;;4.70;;
21546;SDS011;41275;51.912;4.388;2023-03-01T12:12:53;9.35;;;5.15;;
21546;SDS011;41275;51.912;4.388;2023-03-01T12:36:31;9.07;;;4.78;;
21546;SDS011;41275;51.912;4.388;2023-03-01T12:42:06;10.87;;;5.27;;
21546;SDS011;41275;51.912;4.388;2023-03-01T12:53:40;10.45;;;4.80;;
21546;SDS011;41275;51.912;4.388;2023-03-01T12:59:29;7.80;;;4.30;;
21546;SDS011;41275;51.912;4.388;2023-03-01T13:05:06;7.63;;;3.73;;
21546;SDS011;41275;51.912;4.388;2023-03-01T13:10:52;5.77;;;3.67;;
21546;SDS011;41275;51.912;4.388;2023-03-01T13:16:38;6.28;;;3.55;;
21546;SDS011;41275;51.912;4.388;2023-03-01T13:27:48;6.53;;;3.50;;
21546;SDS011;41275;51.912;4.388;2023-03-01T13:44:33;5.70;;;3.00;;
21546;SDS011;41275;51.912;4.388;2023-03-01T13:50:21;6.23;;;3.30;;
21546;SDS011;41275;51.912;4.388;2023-03-01T13:55:46;8.48;;;3.40;;
21546;SDS011;41275;51.912;4.388;2023-03-01T14:06:48;6.10;;;3.17;;
21546;SDS011;41275;51.912;4.388;2023-03-01T14:12:18;5.20;;;3.30;;
21546;SDS011;41275;51.912;4.388;2023-03-01T14:23:43;5.47;;;3.10;;
21546;SDS011;41275;51.912;4.388;2023-03-01T14:29:04;5.30;;;3.17;;
21546;SDS011;41275;51.912;4.388;2023-03-01T14:34:25;6.40;;;3.25;;
21546;SDS011;41275;51.912;4.388;2023-03-01T14:39:47;7.10;;;3.30;;
21546;SDS011;41275;51.912;4.388;2023-03-01T14:45:09;6.03;;;2.75;;
21546;SDS011;41275;51.912;4.388;2023-03-01T14:50:34;5.78;;;3.00;;
21546;SDS011;41275;51.912;4.388;2023-03-01T14:56:01;5.03;;;3.03;;
21546;SDS011;41275;51.912;4.388;2023-03-01T15:01:25;6.60;;;3.10;;
21546;SDS011;41275;51.912;4.388;2023-03-01T15:06:47;5.03;;;2.87;;
21546;SDS011;41275;51.912;4.388;2023-03-01T15:18:13;7.25;;;3.53;;
21546;SDS011;41275;51.912;4.388;2023-03-01T15:23:40;6.15;;;3.05;;
21546;SDS011;41275;51.912;4.388;2023-03-01T15:29:02;6.85;;;3.30;;
21546;SDS011;41275;51.912;4.388;2023-03-01T15:34:33;10.20;;;3.83;;
21546;SDS011;41275;51.912;4.388;2023-03-01T15:39:57;7.05;;;3.40;;
21546;SDS011;41275;51.912;4.388;2023-03-01T15:45:23;6.72;;;3.25;;
21546;SDS011;41275;51.912;4.388;2023-03-01T15:50:54;6.88;;;3.25;;
21546;SDS011;41275;51.912;4.388;2023-03-01T15:56:19;6.53;;;3.23;;
21546;SDS011;41275;51.912;4.388;2023-03-01T16:01:40;5.90;;;3.30;;
21546;SDS011;41275;51.912;4.388;2023-03-01T16:07:02;7.73;;;3.47;;
21546;SDS011;41275;51.912;4.388;2023-03-01T16:12:23;7.32;;;3.40;;
21546;SDS011;41275;51.912;4.388;2023-03-01T16:17:45;6.47;;;3.20;;
21546;SDS011;41275;51.912;4.388;2023-03-01T16:23:07;10.15;;;3.67;;
21546;SDS011;41275;51.912;4.388;2023-03-01T16:28:29;6.10;;;3.03;;
21546;SDS011;41275;51.912;4.388;2023-03-01T16:33:52;8.80;;;3.67;;
21546;SDS011;41275;51.912;4.388;2023-03-01T16:39:14;7.22;;;3.58;;
21546;SDS011;41275;51.912;4.388;2023-03-01T16:44:37;7.50;;;3.30;;
21546;SDS011;41275;51.912;4.388;2023-03-01T16:49:58;6.28;;;3.33;;
21546;SDS011;41275;51.912;4.388;2023-03-01T16:55:19;6.63;;;3.35;;
21546;SDS011;41275;51.912;4.388;2023-03-01T17:00:41;5.85;;;3.35;;
21546;SDS011;41275;51.912;4.388;2023-03-01T17:06:03;8.98;;;4.10;;
21546;SDS011;41275;51.912;4.388;2023-03-01T17:11:25;8.00;;;3.85;;
21546;SDS011;41275;51.912;4.388;2023-03-01T17:16:47;7.47;;;3.83;;
21546;SDS011;41275;51.912;4.388;2023-03-01T17:22:08;8.93;;;3.95;;
21546;SDS011;41275;51.912;4.388;2023-03-01T17:27:30;9.60;;;3.80;;
21546;SDS011;41275;51.912;4.388;2023-03-01T17:32:55;8.30;;;3.83;;
21546;SDS011;41275;51.912;4.388;2023-03-01T17:38:16;10.55;;;4.10;;
21546;SDS011;41275;51.912;4.388;2023-03-01T17:43:38;8.25;;;4.03;;
21546;SDS011;41275;51.912;4.388;2023-03-01T17:48:59;7.97;;;4.38;;
21546;SDS011;41275;51.912;4.388;2023-03-01T17:54:21;10.48;;;4.40;;
21546;SDS011;41275;51.912;4.388;2023-03-01T17:59:42;8.82;;;4.30;;
21546;SDS011;41275;51.912;4.388;2023-03-01T18:05:03;7.90;;;4.13;;
21546;SDS011;41275;51.912;4.388;2023-03-01T18:10:25;7.80;;;4.23;;
21546;SDS011;41275;51.912;4.388;2023-03-01T18:15:46;7.88;;;4.20;;
21546;SDS011;41275;51.912;4.388;2023-03-01T18:21:07;9.50;;;4.75;;
21546;SDS011;41275;51.912;4.388;2023-03-01T18:26:28;6.88;;;4.22;;
21546;SDS011;41275;51.912;4.388;2023-03-01T18:31:50;9.68;;;4.40;;
21546;SDS011;41275;51.912;4.388;2023-03-01T18:37:11;10.70;;;4.65;;
21546;SDS011;41275;51.912;4.388;2023-03-01T18:42:32;10.23;;;4.90;;
21546;SDS011;41275;51.912;4.388;2023-03-01T18:47:53;10.60;;;4.37;;
21546;SDS011;41275;51.912;4.388;2023-03-01T18:53:14;10.03;;;4.43;;
21546;SDS011;41275;51.912;4.388;2023-03-01T18:58:36;11.50;;;5.07;;
21546;SDS011;41275;51.912;4.388;2023-03-01T19:03:58;11.07;;;4.87;;
21546;SDS011;41275;51.912;4.388;2023-03-01T19:09:19;8.77;;;4.80;;
21546;SDS011;41275;51.912;4.388;2023-03-01T19:14:40;9.85;;;5.32;;
21546;SDS011;41275;51.912;4.388;2023-03-01T19:20:02;11.38;;;5.00;;
21546;SDS011;41275;51.912;4.388;2023-03-01T19:25:24;9.35;;;4.68;;
21546;SDS011;41275;51.912;4.388;2023-03-01T19:30:45;9.27;;;4.35;;
21546;SDS011;41275;51.912;4.388;2023-03-01T19:36:07;9.97;;;4.97;;
21546;SDS011;41275;51.912;4.388;2023-03-01T19:41:29;9.87;;;5.20;;
21546;SDS011;41275;51.912;4.388;2023-03-01T19:46:51;10.02;;;4.97;;
21546;SDS011;41275;51.912;4.388;2023-03-01T19:52:14;9.75;;;4.93;;
21546;SDS011;41275;51.912;4.388;2023-03-01T19:57:35;9.98;;;5.18;;
21546;SDS011;41275;51.912;4.388;2023-03-01T20:02:56;12.80;;;5.40;;
21546;SDS011;41275;51.912;4.388;2023-03-01T20:08:17;11.00;;;5.60;;
21546;SDS011;41275;51.912;4.388;2023-03-01T20:13:39;11.10;;;5.67;;
21546;SDS011;41275;51.912;4.388;2023-03-01T20:19:01;11.53;;;5.53;;
21546;SDS011;41275;51.912;4.388;2023-03-01T20:24:22;9.40;;;5.13;;
21546;SDS011;41275;51.912;4.388;2023-03-01T20:29:44;13.65;;;5.63;;
21546;SDS011;41275;51.912;4.388;2023-03-01T20:35:05;10.27;;;5.00;;
21546;SDS011;41275;51.912;4.388;2023-03-01T20:40:27;12.73;;;5.18;;
21546;SDS011;41275;51.912;4.388;2023-03-01T20:45:48;10.80;;;5.33;;
21546;SDS011;41275;51.912;4.388;2023-03-01T20:51:10;12.37;;;5.50;;
21546;SDS011;41275;51.912;4.388;2023-03-01T20:56:32;10.73;;;5.63;;
21546;SDS011;41275;51.912;4.388;2023-03-01T21:01:53;11.40;;;5.63;;
21546;SDS011;41275;51.912;4.388;2023-03-01T21:07:15;12.90;;;5.97;;
21546;SDS011;41275;51.912;4.388;2023-03-01T21:12:36;10.33;;;5.77;;
21546;SDS011;41275;51.912;4.388;2023-03-01T21:17:57;12.60;;;5.37;;
21546;SDS011;41275;51.912;4.388;2023-03-01T21:23:19;11.95;;;5.72;;
21546;SDS011;41275;51.912;4.388;2023-03-01T21:28:41;13.30;;;6.10;;
21546;SDS011;41275;51.912;4.388;2023-03-01T21:34:03;10.07;;;5.67;;
21546;SDS011;41275;51.912;4.388;2023-03-01T21:39:26;10.38;;;6.18;;
21546;SDS011;41275;51.912;4.388;2023-03-01T21:44:51;10.50;;;5.90;;
21546;SDS011;41275;51.912;4.388;2023-03-01T21:50:13;11.25;;;6.53;;
21546;SDS011;41275;51.912;4.388;2023-03-01T21:55:34;13.13;;;6.67;;
21546;SDS011;41275;51.912;4.388;2023-03-01T22:01:05;16.63;;;7.80;;
21546;SDS011;41275;51.912;4.388;2023-03-01T22:06:31;13.97;;;7.30;;
21546;SDS011;41275;51.912;4.388;2023-03-01T22:11:57;12.57;;;7.18;;
21546;SDS011;41275;51.912;4.388;2023-03-01T22:17:21;15.10;;;6.97;;
21546;SDS011;41275;51.912;4.388;2023-03-01T22:22:43;15.10;;;7.55;;
21546;SDS011;41275;51.912;4.388;2023-03-01T22:28:04;14.63;;;6.70;;
21546;SDS011;41275;51.912;4.388;2023-03-01T22:33:25;15.77;;;7.50;;
21546;SDS011;41275;51.912;4.388;2023-03-01T22:38:46;14.02;;;7.07;;
21546;SDS011;41275;51.912;4.388;2023-03-01T22:44:08;15.43;;;7.13;;
21546;SDS011;41275;51.912;4.388;2023-03-01T22:49:37;14.17;;;7.23;;
21546;SDS011;41275;51.912;4.388;2023-03-01T22:54:58;16.38;;;8.10;;
21546;SDS011;41275;51.912;4.388;2023-03-01T23:00:19;13.55;;;7.30;;
21546;SDS011;41275;51.912;4.388;2023-03-01T23:05:41;15.60;;;7.47;;
21546;SDS011;41275;51.912;4.388;2023-03-01T23:11:02;14.98;;;7.15;;
21546;SDS011;41275;51.912;4.388;2023-03-01T23:16:29;16.05;;;7.18;;
21546;SDS011;41275;51.912;4.388;2023-03-01T23:21:50;16.13;;;7.22;;
21546;SDS011;41275;51.912;4.388;2023-03-01T23:27:14;12.10;;;7.00;;
21546;SDS011;41275;51.912;4.388;2023-03-01T23:32:38;13.57;;;7.17;;
21546;SDS011;41275;51.912;4.388;2023-03-01T23:38:00;13.40;;;6.90;;
21546;SDS011;41275;51.912;4.388;2023-03-01T23:43:21;12.90;;;6.67;;
21546;SDS011;41275;51.912;4.388;2023-03-01T23:48:42;14.60;;;7.28;;
21546;SDS011;41275;51.912;4.388;2023-03-01T23:54:04;14.40;;;7.28;;
21546;SDS011;41275;51.912;4.388;2023-03-01T23:59:26;14.87;;;7.80;;
